Time;durP1;ratioP1;P1;durP2;ratioP2;P2;SDS_P1;SDS_P2;PMS_P1;PMS_P2;Temp;Humidity;BMP_temperature;BMP_pressure;BME280_temperature;BME280_humidity;BME280_pressure;Samples;Min_cycle;Max_cycle;Signal;HPM_P1;HPM_P2
2022/03/15 00:01:14;;;;;;;17.30;8.90;;;4.70;99.90;;;;;;5091535;22;20138;-80
2022/03/15 00:03:40;;;;;;;17.35;9.55;;;4.70;99.90;;;;;;5082580;22;20059;-80
2022/03/15 00:06:06;;;;;;;21.52;9.93;;;4.70;99.90;;;;;;5086417;22;20059;-80
2022/03/15 00:08:33;;;;;;;20.75;10.40;;;5.30;99.90;;;;;;5067039;22;20049;-80
2022/03/15 00:11:02;;;;;;;27.42;10.85;;;4.60;99.90;;;;;;5059201;28;20041;-80
2022/03/15 00:13:30;;;;;;;20.63;9.40;;;4.60;99.90;;;;;;5071107;22;20044;-80
2022/03/15 00:15:58;;;;;;;16.52;8.95;;;4.60;99.90;;;;;;5067390;22;20055;-80
2022/03/15 00:18:24;;;;;;;15.80;8.60;;;4.50;99.90;;;;;;5059375;28;20082;-80
2022/03/15 00:20:50;;;;;;;16.58;8.00;;;4.50;99.90;;;;;;5134482;22;20054;-82
2022/03/15 00:23:16;;;;;;;15.45;8.70;;;4.40;99.90;;;;;;5095230;22;20139;-82
2022/03/15 00:25:42;;;;;;;14.82;8.52;;;4.50;99.90;;;;;;5092334;22;20047;-82
2022/03/15 00:28:08;;;;;;;16.38;8.48;;;4.50;99.90;;;;;;5094904;22;20062;-82
2022/03/15 00:30:40;;;;;;;19.55;8.68;;;4.40;99.90;;;;;;5070286;22;20075;-82
2022/03/15 00:33:08;;;;;;;19.58;9.50;;;4.40;99.90;;;;;;5104575;22;20047;-82
2022/03/15 00:35:35;;;;;;;19.48;9.13;;;4.40;99.90;;;;;;5112313;22;20449;-82
2022/03/15 00:38:01;;;;;;;23.55;9.85;;;4.90;99.90;;;;;;5127217;22;20051;-80
2022/03/15 00:40:27;;;;;;;17.95;9.05;;;4.40;99.90;;;;;;5089460;22;20494;-80
2022/03/15 00:42:53;;;;;;;23.15;8.98;;;4.80;99.90;;;;;;5081207;22;20110;-80
2022/03/15 00:45:23;;;;;;;14.05;8.93;;;5.00;99.90;;;;;;5091809;22;20078;-80
2022/03/15 00:47:52;;;;;;;19.77;9.68;;;5.00;99.90;;;;;;5091236;22;20052;-81
2022/03/15 00:50:19;;;;;;;17.58;9.80;;;5.20;99.90;;;;;;5090371;22;20055;-80
2022/03/15 00:52:45;;;;;;;16.45;9.90;;;4.50;99.90;;;;;;5078316;22;20056;-80
2022/03/15 00:55:11;;;;;;;20.08;10.18;;;4.60;99.90;;;;;;5114205;22;20074;-82
2022/03/15 00:57:44;;;;;;;19.15;9.95;;;4.60;99.90;;;;;;5070618;22;20033;-82
2022/03/15 01:00:11;;;;;;;19.83;10.48;;;4.70;99.90;;;;;;5101264;22;20066;-82
2022/03/15 01:02:37;;;;;;;21.30;10.13;;;4.70;99.90;;;;;;5101229;22;20043;-82
2022/03/15 01:05:04;;;;;;;19.88;10.25;;;5.50;99.90;;;;;;5113364;22;20047;-82
2022/03/15 01:07:30;;;;;;;17.17;10.02;;;4.80;99.90;;;;;;5115251;22;20063;-82
2022/03/15 01:09:56;;;;;;;22.35;11.10;;;5.20;99.90;;;;;;5096206;22;20394;-82
2022/03/15 01:12:21;;;;;;;17.83;10.43;;;4.90;99.90;;;;;;5106270;28;20063;-82
2022/03/15 01:14:47;;;;;;;23.92;11.63;;;5.20;99.90;;;;;;5121598;22;20050;-82
2022/03/15 01:17:13;;;;;;;22.40;11.93;;;4.90;99.90;;;;;;5100531;22;20044;-82
2022/03/15 01:19:40;;;;;;;21.83;11.70;;;4.90;99.90;;;;;;5062750;28;20048;-82
2022/03/15 01:22:05;;;;;;;20.48;11.43;;;5.00;99.90;;;;;;5063005;28;20475;-82
2022/03/15 01:24:32;;;;;;;25.00;12.35;;;5.00;99.90;;;;;;5073137;22;20112;-82
2022/03/15 01:26:58;;;;;;;23.85;12.52;;;5.20;99.90;;;;;;5077813;22;20079;-82
2022/03/15 01:29:26;;;;;;;24.38;12.32;;;5.00;99.90;;;;;;5082881;22;20048;-82
2022/03/15 01:31:52;;;;;;;23.33;13.00;;;5.10;99.90;;;;;;5121809;22;20132;-81
2022/03/15 01:34:17;;;;;;;27.50;13.60;;;5.70;99.90;;;;;;5092366;22;20076;-80
2022/03/15 01:36:43;;;;;;;27.52;12.98;;;5.10;99.90;;;;;;5089571;22;20051;-81
2022/03/15 01:39:10;;;;;;;26.55;12.77;;;5.60;99.90;;;;;;5092089;22;20071;-80
2022/03/15 01:41:40;;;;;;;26.00;12.80;;;5.10;99.90;;;;;;5067457;22;20135;-80
2022/03/15 01:44:20;;;;;;;22.85;12.77;;;5.10;99.90;;;;;;5070625;22;20051;-80
2022/03/15 01:46:53;;;;;;;22.30;11.70;;;5.50;99.90;;;;;;5086669;22;20052;31
2022/03/15 01:49:20;;;;;;;24.52;12.48;;;5.20;99.90;;;;;;5109187;22;20121;-82
2022/03/15 01:51:46;;;;;;;28.00;12.82;;;5.20;99.90;;;;;;5103026;28;20039;-82
2022/03/15 01:54:13;;;;;;;27.67;13.23;;;5.30;99.90;;;;;;5098369;22;20059;-82
2022/03/15 01:56:40;;;;;;;26.65;12.73;;;5.30;99.90;;;;;;5105688;28;20078;-82
2022/03/15 01:59:11;;;;;;;23.92;11.93;;;5.30;99.90;;;;;;5113057;22;20072;-82
2022/03/15 02:01:39;;;;;;;23.95;12.73;;;5.40;99.90;;;;;;5089049;22;20052;-82
2022/03/15 02:04:05;;;;;;;22.52;11.93;;;5.40;99.90;;;;;;5065357;28;20043;-82
2022/03/15 02:06:34;;;;;;;24.23;12.82;;;5.80;99.90;;;;;;5094301;22;20369;-81
2022/03/15 02:09:09;;;;;;;23.60;12.05;;;5.40;99.90;;;;;;5074396;22;20055;-80
2022/03/15 02:11:35;;;;;;;23.88;12.45;;;5.50;99.90;;;;;;5071165;22;20167;-80
2022/03/15 02:14:06;;;;;;;24.73;12.60;;;5.90;99.90;;;;;;5088274;22;20115;-81
2022/03/15 02:16:33;;;;;;;23.40;12.18;;;5.50;99.90;;;;;;5065930;22;20045;-81
2022/03/15 02:19:00;;;;;;;28.63;12.40;;;5.50;99.90;;;;;;5077304;22;20040;-81
2022/03/15 02:21:27;;;;;;;29.60;12.45;;;5.50;99.90;;;;;;5167557;22;20075;-82
2022/03/15 02:23:53;;;;;;;22.20;12.43;;;6.20;99.90;;;;;;5065169;28;20067;-82
2022/03/15 02:26:18;;;;;;;26.08;12.40;;;5.50;99.90;;;;;;5075930;22;20550;-82
2022/03/15 02:28:45;;;;;;;20.98;12.43;;;5.60;99.90;;;;;;5072673;22;20410;-82
2022/03/15 02:31:11;;;;;;;23.90;12.25;;;5.60;99.90;;;;;;5086367;28;20500;-82
2022/03/15 02:33:43;;;;;;;22.40;11.98;;;5.70;99.90;;;;;;5084206;22;20141;-82
2022/03/15 02:36:09;;;;;;;27.95;12.52;;;5.60;99.90;;;;;;5094994;28;20059;-82
2022/03/15 02:41:13;;;;;;;23.30;12.43;;;5.60;99.90;;;;;;5147708;22;20047;-80
2022/03/15 02:43:44;;;;;;;25.08;13.30;;;5.60;99.90;;;;;;5086823;22;20073;-82
2022/03/15 02:46:10;;;;;;;22.02;13.10;;;5.60;99.90;;;;;;5095616;22;20509;-80
2022/03/15 02:48:40;;;;;;;26.15;13.43;;;5.60;99.90;;;;;;5113623;22;20507;-80
2022/03/15 02:51:08;;;;;;;21.42;12.20;;;5.60;99.90;;;;;;5079632;22;20043;-80
2022/03/15 02:53:42;;;;;;;25.38;12.10;;;5.90;99.90;;;;;;5096108;22;20052;-80
2022/03/15 02:56:11;;;;;;;25.63;12.98;;;5.60;99.90;;;;;;5118414;22;20047;-82
2022/03/15 02:58:41;;;;;;;23.58;12.77;;;5.60;99.90;;;;;;5115890;22;20063;-82
2022/03/15 03:01:08;;;;;;;23.75;12.30;;;5.60;99.90;;;;;;5107071;22;20052;-82
2022/03/15 03:05:59;;;;;;;22.70;12.55;;;5.60;99.90;;;;;;5148317;22;20058;-82
2022/03/15 03:08:27;;;;;;;22.95;12.25;;;5.90;99.90;;;;;;5099055;22;20048;-82
2022/03/15 03:10:54;;;;;;;22.27;12.57;;;6.00;99.90;;;;;;5086015;22;20059;-82
2022/03/15 03:13:26;;;;;;;21.30;11.90;;;5.70;99.90;;;;;;5088395;28;20052;-82
2022/03/15 03:15:57;;;;;;;24.38;12.20;;;5.90;99.90;;;;;;5095114;22;20036;-82
2022/03/15 03:18:32;;;;;;;21.75;11.80;;;5.60;99.90;;;;;;5107659;27;20079;-82
2022/03/15 03:21:01;;;;;;;21.75;12.13;;;5.60;99.90;;;;;;5090540;22;20044;-82
2022/03/15 03:23:27;;;;;;;22.08;12.25;;;6.10;99.90;;;;;;5092230;22;20048;-82
2022/03/15 03:25:54;;;;;;;21.10;12.55;;;5.70;99.90;;;;;;5067919;28;20048;-82
2022/03/15 03:28:20;;;;;;;24.70;12.43;;;5.70;99.90;;;;;;5115442;22;20049;-82
2022/03/15 03:30:47;;;;;;;22.13;12.52;;;5.70;99.90;;;;;;5064735;28;20037;-83
2022/03/15 03:33:15;;;;;;;22.98;13.10;;;5.70;99.90;;;;;;5074463;22;20058;-82
2022/03/15 03:35:43;;;;;;;21.80;12.07;;;6.10;99.90;;;;;;5071907;22;20045;-83
2022/03/15 03:38:09;;;;;;;24.50;13.00;;;5.80;99.90;;;;;;5081561;22;21118;-82
2022/03/15 03:40:35;;;;;;;24.90;12.70;;;5.70;99.90;;;;;;5071949;22;20147;-82
2022/03/15 03:43:00;;;;;;;22.35;12.88;;;6.20;99.90;;;;;;5064122;28;20076;-82
2022/03/15 03:45:26;;;;;;;24.73;12.43;;;6.40;99.90;;;;;;5063950;28;20108;-82
2022/03/15 03:47:52;;;;;;;23.50;13.23;;;5.90;99.90;;;;;;5083194;22;20071;-81
2022/03/15 03:50:18;;;;;;;24.67;13.27;;;6.40;99.90;;;;;;5108849;22;20056;-81
2022/03/15 03:52:45;;;;;;;28.67;13.45;;;5.70;99.90;;;;;;5094865;22;20047;-81
2022/03/15 03:55:11;;;;;;;24.70;13.32;;;6.20;99.90;;;;;;5106412;22;20068;-81
2022/03/15 03:57:38;;;;;;;27.73;13.07;;;5.70;99.90;;;;;;5080661;22;20048;-80
2022/03/15 04:00:06;;;;;;;24.38;13.48;;;5.60;99.90;;;;;;5088056;22;20052;-80
2022/03/15 04:02:32;;;;;;;27.25;13.68;;;5.60;99.90;;;;;;5075777;22;20050;-80
2022/03/15 04:04:58;;;;;;;28.27;13.88;;;5.60;99.90;;;;;;5077133;22;20147;-80
2022/03/15 04:07:24;;;;;;;27.88;14.10;;;6.10;99.90;;;;;;5086825;22;20068;-80
2022/03/15 04:09:50;;;;;;;27.75;13.70;;;5.60;99.90;;;;;;5067810;22;20044;-80
2022/03/15 04:12:20;;;;;;;27.40;14.25;;;6.50;99.90;;;;;;5070369;22;20051;-80
2022/03/15 04:14:46;;;;;;;29.67;14.80;;;5.90;99.90;;;;;;5090135;22;20127;-81
2022/03/15 04:17:14;;;;;;;31.27;15.05;;;6.30;99.90;;;;;;5097454;22;20044;-80
2022/03/15 04:19:39;;;;;;;24.17;13.90;;;6.50;99.90;;;;;;5059960;28;20053;-80
2022/03/15 04:22:05;;;;;;;31.10;14.77;;;6.20;99.90;;;;;;5059239;28;20048;-80
2022/03/15 04:24:32;;;;;;;26.25;14.60;;;5.50;99.90;;;;;;5071146;22;20070;-81
2022/03/15 04:27:00;;;;;;;28.77;14.85;;;5.50;99.90;;;;;;5079501;28;20461;-80
2022/03/15 04:29:26;;;;;;;30.10;14.65;;;6.20;99.90;;;;;;5062497;28;20474;-80
2022/03/15 04:31:52;;;;;;;28.27;15.02;;;6.30;99.90;;;;;;5078955;28;20434;-81
2022/03/15 04:34:18;;;;;;;30.35;15.45;;;5.50;99.90;;;;;;5067438;22;20071;-80
2022/03/15 04:36:44;;;;;;;25.77;14.90;;;5.90;99.90;;;;;;5075667;28;20056;-81
2022/03/15 04:39:13;;;;;;;29.65;15.63;;;6.00;99.90;;;;;;5058662;28;20101;-80
2022/03/15 04:41:39;;;;;;;33.67;15.63;;;6.40;99.90;;;;;;5075788;28;20052;-80
2022/03/15 04:44:08;;;;;;;27.88;15.38;;;6.50;99.90;;;;;;5070907;22;20066;-80
2022/03/15 04:46:34;;;;;;;30.23;15.30;;;5.50;99.90;;;;;;5079679;28;20466;-81
2022/03/15 04:49:00;;;;;;;33.90;15.75;;;5.70;99.90;;;;;;5109987;22;20054;-80
2022/03/15 04:51:26;;;;;;;33.72;15.70;;;6.60;99.90;;;;;;5102874;27;20481;-80
2022/03/15 04:53:53;;;;;;;31.63;16.10;;;6.30;99.90;;;;;;5102880;27;20493;-80
2022/03/15 04:56:19;;;;;;;28.15;15.18;;;5.40;99.90;;;;;;5137847;27;20061;-80
2022/03/15 04:58:45;;;;;;;29.77;16.40;;;6.00;99.90;;;;;;5179937;22;20053;-80
2022/03/15 05:01:11;;;;;;;27.50;15.65;;;6.30;99.90;;;;;;5094717;22;20068;-80
2022/03/15 05:03:37;;;;;;;32.67;15.88;;;5.40;99.90;;;;;;5073810;28;20040;-80
2022/03/15 05:06:03;;;;;;;28.15;15.77;;;5.30;99.90;;;;;;5077536;28;20044;-80
2022/03/15 05:08:29;;;;;;;31.50;16.50;;;5.30;99.90;;;;;;5071109;22;20048;-80
2022/03/15 05:11:07;;;;;;;35.35;17.13;;;5.30;99.90;;;;;;5064037;28;20052;-80
2022/03/15 05:13:43;;;;;;;30.23;16.15;;;6.20;99.90;;;;;;5063743;28;20070;-81
2022/03/15 05:16:11;;;;;;;31.98;16.85;;;5.30;99.90;;;;;;5079754;28;20052;-80
2022/03/15 05:18:37;;;;;;;30.42;16.73;;;5.60;99.90;;;;;;5068603;22;20053;-80
2022/03/15 05:21:07;;;;;;;31.08;17.45;;;5.20;99.90;;;;;;5060057;28;20087;-80
2022/03/15 05:23:33;;;;;;;35.35;17.27;;;5.20;99.90;;;;;;5077923;28;20128;-80
2022/03/15 05:25:59;;;;;;;30.80;16.83;;;5.20;99.90;;;;;;5077215;28;20040;-80
2022/03/15 05:28:24;;;;;;;32.70;16.73;;;5.20;99.90;;;;;;5060082;28;20048;-80
2022/03/15 05:30:50;;;;;;;33.35;16.77;;;5.20;99.90;;;;;;5060043;28;20170;-80
2022/03/15 05:33:16;;;;;;;33.90;17.80;;;5.20;99.90;;;;;;5059795;28;20048;-80
2022/03/15 05:35:42;;;;;;;35.13;17.55;;;5.20;99.90;;;;;;5077395;28;20048;-80
2022/03/15 05:38:09;;;;;;;36.28;17.42;;;6.20;99.90;;;;;;5060084;28;20131;-81
2022/03/15 05:40:35;;;;;;;35.25;17.80;;;6.20;99.90;;;;;;5059924;28;20040;-80
2022/03/15 05:43:00;;;;;;;33.80;17.90;;;5.30;99.90;;;;;;5079702;28;20032;-80
2022/03/15 05:45:26;;;;;;;31.65;17.48;;;5.80;99.90;;;;;;5079470;28;20125;-80
2022/03/15 05:47:53;;;;;;;37.22;17.55;;;4.60;99.90;;;;;;5088465;28;20041;-81
2022/03/15 05:50:19;;;;;;;34.67;17.65;;;5.20;99.90;;;;;;5093653;28;20044;-81
2022/03/15 05:52:45;;;;;;;37.83;17.77;;;5.00;99.90;;;;;;5095437;22;20052;-80
2022/03/15 05:55:11;;;;;;;36.05;17.00;;;5.90;99.90;;;;;;5083265;28;20048;-80
2022/03/15 05:57:38;;;;;;;34.50;16.92;;;5.20;99.90;;;;;;5066843;28;20084;-80
2022/03/15 06:00:06;;;;;;;37.53;18.10;;;5.70;99.90;;;;;;5083210;28;20040;-80
2022/03/15 06:02:31;;;;;;;38.78;17.92;;;5.20;99.90;;;;;;5066559;28;20040;-81
2022/03/15 06:04:59;;;;;;;33.20;17.02;;;5.20;99.90;;;;;;5066181;28;20577;-80
2022/03/15 06:07:25;;;;;;;34.13;17.52;;;6.20;99.90;;;;;;5066748;28;20051;-80
2022/03/15 06:09:52;;;;;;;35.85;16.67;;;5.20;99.90;;;;;;5119261;22;20043;-80
2022/03/15 06:12:18;;;;;;;37.22;18.30;;;5.70;99.90;;;;;;5106522;27;20134;-80
2022/03/15 06:14:44;;;;;;;36.17;16.80;;;5.80;99.90;;;;;;5123293;27;20049;-80
2022/03/15 06:17:10;;;;;;;34.60;17.15;;;5.30;99.90;;;;;;5123590;27;20047;-80
2022/03/15 06:19:35;;;;;;;34.03;17.15;;;6.20;99.90;;;;;;5106485;27;20090;-80
2022/03/15 06:22:01;;;;;;;34.72;18.27;;;6.40;99.90;;;;;;5106906;27;20091;-80
2022/03/15 06:24:27;;;;;;;38.50;18.75;;;5.30;99.90;;;;;;5106739;27;20397;-80
2022/03/15 06:26:53;;;;;;;34.47;17.00;;;6.20;99.90;;;;;;5105848;27;20096;-81
2022/03/15 06:29:19;;;;;;;33.10;17.35;;;5.90;99.90;;;;;;5106000;27;20077;-80
2022/03/15 06:31:44;;;;;;;34.45;18.00;;;5.90;99.90;;;;;;5106566;27;20057;-80
2022/03/15 06:34:10;;;;;;;37.20;17.67;;;5.80;99.90;;;;;;5123064;27;20050;-80
2022/03/15 06:36:36;;;;;;;35.35;16.65;;;5.40;99.90;;;;;;5105778;27;20454;-80
2022/03/15 06:39:05;;;;;;;34.17;17.23;;;5.30;99.90;;;;;;5105371;27;20039;-80
2022/03/15 06:41:31;;;;;;;34.90;17.58;;;5.30;99.90;;;;;;5079557;22;20055;-80
2022/03/15 06:43:57;;;;;;;35.45;16.95;;;5.30;99.90;;;;;;5076305;22;20106;-80
2022/03/15 06:46:23;;;;;;;34.30;17.08;;;5.30;99.90;;;;;;5105826;27;20047;-80
2022/03/15 06:48:49;;;;;;;32.72;16.30;;;6.50;99.90;;;;;;5074405;22;20052;-80
2022/03/15 06:51:15;;;;;;;37.63;18.25;;;5.90;99.90;;;;;;5079289;28;20064;-80
2022/03/15 06:53:41;;;;;;;41.75;18.65;;;6.40;99.90;;;;;;5071421;22;20074;-80
2022/03/15 06:56:08;;;;;;;38.35;18.27;;;6.20;99.90;;;;;;5081559;28;20134;-80
2022/03/15 07:00:59;;;;;;;42.00;18.90;;;5.40;99.90;;;;;;5195185;22;20051;-80
2022/03/15 07:03:25;;;;;;;36.60;17.48;;;5.50;99.90;;;;;;5122414;27;20100;-80
2022/03/15 07:05:51;;;;;;;42.33;18.40;;;5.60;99.90;;;;;;5140355;27;20035;-80
2022/03/15 07:08:16;;;;;;;42.00;18.30;;;5.60;99.90;;;;;;5105174;27;20043;-80
2022/03/15 07:10:42;;;;;;;42.38;19.02;;;6.60;99.90;;;;;;5122474;27;20037;-80
2022/03/15 07:13:08;;;;;;;38.30;18.50;;;6.60;99.90;;;;;;5122621;27;20103;-80
2022/03/15 07:15:41;;;;;;;33.38;18.20;;;5.70;99.90;;;;;;5076424;22;20433;-80
2022/03/15 07:18:07;;;;;;;36.55;17.85;;;6.20;99.90;;;;;;5062342;28;20563;-80
2022/03/15 07:20:33;;;;;;;36.80;18.95;;;5.80;99.90;;;;;;5103941;22;20035;-81
2022/03/15 07:22:58;;;;;;;36.45;18.95;;;6.70;99.90;;;;;;5104439;27;20051;-81
2022/03/15 07:25:24;;;;;;;39.75;19.05;;;6.60;99.90;;;;;;5105142;27;20039;-80
2022/03/15 07:27:50;;;;;;;37.20;18.98;;;5.90;99.90;;;;;;5123171;27;20051;-81
2022/03/15 07:30:16;;;;;;;40.42;20.35;;;6.00;99.90;;;;;;5111724;22;20045;-80
2022/03/15 07:32:42;;;;;;;41.42;19.58;;;6.10;99.90;;;;;;5105145;27;20477;-80
2022/03/15 07:35:08;;;;;;;41.00;20.08;;;6.80;99.90;;;;;;5104068;27;20046;-80
2022/03/15 07:40:03;;;;;;;41.85;18.95;;;6.20;99.90;;;;;;5152559;22;20050;-80
2022/03/15 07:42:30;;;;;;;41.47;19.40;;;6.00;99.90;;;;;;5094675;22;20056;-81
2022/03/15 07:44:55;;;;;;;43.58;19.45;;;6.30;99.90;;;;;;5084702;22;20046;-81
2022/03/15 07:47:21;;;;;;;38.90;19.70;;;7.10;99.90;;;;;;5081555;22;20246;-81
2022/03/15 07:49:47;;;;;;;42.05;19.77;;;7.10;99.90;;;;;;5089356;22;20049;-81
2022/03/15 07:52:14;;;;;;;42.10;19.98;;;6.40;99.90;;;;;;5092838;22;20120;-81
2022/03/15 07:54:43;;;;;;;40.95;19.85;;;6.50;99.90;;;;;;5088074;22;20546;31
2022/03/15 07:57:09;;;;;;;41.17;19.75;;;6.50;99.90;;;;;;5071750;22;20408;-80
2022/03/15 07:59:35;;;;;;;40.75;19.20;;;7.40;99.90;;;;;;5041353;28;20057;-81
2022/03/15 08:02:01;;;;;;;40.75;20.48;;;7.20;99.90;;;;;;5075811;22;20043;-81
2022/03/15 08:04:26;;;;;;;43.63;21.42;;;6.60;99.90;;;;;;5095104;22;20387;-81
2022/03/15 08:06:52;;;;;;;40.78;19.88;;;7.20;99.90;;;;;;5084243;22;20052;-81
2022/03/15 08:09:18;;;;;;;44.75;20.27;;;6.70;99.90;;;;;;5081595;22;20396;-81
2022/03/15 08:11:45;;;;;;;40.33;19.98;;;7.60;99.90;;;;;;5087754;22;20049;-81
2022/03/15 08:14:11;;;;;;;42.42;20.23;;;7.40;99.90;;;;;;5077622;22;20102;-81
2022/03/15 08:16:40;;;;;;;42.78;21.15;;;7.60;99.90;;;;;;5129064;22;20074;-81
2022/03/15 08:19:06;;;;;;;43.78;20.88;;;6.90;99.90;;;;;;5100104;22;20079;-81
2022/03/15 08:21:32;;;;;;;42.72;21.08;;;6.80;99.90;;;;;;5086485;22;20374;-81
2022/03/15 08:23:57;;;;;;;42.13;21.35;;;7.00;99.90;;;;;;5118744;22;20070;-81
2022/03/15 08:26:23;;;;;;;42.67;21.25;;;7.00;99.90;;;;;;5094504;22;20170;-81
2022/03/15 08:28:49;;;;;;;41.75;22.05;;;7.20;99.90;;;;;;5075449;22;20044;-81
2022/03/15 08:31:16;;;;;;;40.45;20.88;;;7.70;99.90;;;;;;5089480;22;20056;-81
2022/03/15 08:33:44;;;;;;;43.90;21.02;;;7.00;99.90;;;;;;5081541;22;20047;-81
2022/03/15 08:36:11;;;;;;;44.45;22.30;;;8.00;99.90;;;;;;5075778;22;20490;-81
2022/03/15 08:38:43;;;;;;;43.92;22.05;;;7.10;99.90;;;;;;5082646;22;20086;-81
2022/03/15 08:41:10;;;;;;;40.90;20.63;;;7.10;99.90;;;;;;5071525;22;1112648;-81
2022/03/15 08:43:42;;;;;;;43.97;22.27;;;7.90;99.90;;;;;;5061223;22;20053;-81
2022/03/15 08:46:08;;;;;;;45.65;22.13;;;7.20;99.90;;;;;;5094633;22;20082;-81
2022/03/15 08:48:34;;;;;;;45.08;22.25;;;8.10;99.90;;;;;;5103683;22;20498;-81
2022/03/15 08:51:01;;;;;;;47.85;22.60;;;7.20;99.90;;;;;;5083018;22;20048;-81
2022/03/15 08:53:32;;;;;;;48.75;23.30;;;7.30;99.90;;;;;;5090352;22;20046;-81
2022/03/15 08:55:59;;;;;;;40.70;22.23;;;7.30;99.90;;;;;;5084532;22;20403;-81
2022/03/15 08:58:24;;;;;;;43.95;22.15;;;7.90;99.90;;;;;;5079211;22;20055;-81
2022/03/15 09:00:51;;;;;;;41.92;21.58;;;7.40;99.90;;;;;;5087292;22;20060;-81
2022/03/15 09:03:17;;;;;;;42.53;22.25;;;8.30;99.90;;;;;;5092801;22;20040;-81
2022/03/15 09:05:43;;;;;;;41.15;22.90;;;7.50;99.90;;;;;;5083843;22;20147;-81
2022/03/15 09:08:09;;;;;;;39.97;21.15;;;7.60;99.90;;;;;;5092159;22;20059;-81
2022/03/15 09:10:35;;;;;;;44.40;21.48;;;7.60;99.90;;;;;;5092359;22;20044;-81
2022/03/15 09:13:00;;;;;;;43.95;22.10;;;7.70;99.90;;;;;;5085411;22;20124;-81
2022/03/15 09:15:27;;;;;;;36.60;21.48;;;8.20;99.90;;;;;;5090543;22;20074;-81
2022/03/15 09:17:53;;;;;;;42.42;21.65;;;8.60;99.90;;;;;;5075367;22;20054;-79
2022/03/15 09:20:19;;;;;;;40.00;20.95;;;8.80;99.90;;;;;;5105771;22;20052;-79
2022/03/15 09:22:44;;;;;;;37.25;20.98;;;8.80;99.90;;;;;;5087867;22;20407;-79
2022/03/15 09:25:11;;;;;;;38.55;21.02;;;8.20;99.90;;;;;;5081326;22;20045;-79
2022/03/15 09:27:43;;;;;;;40.30;20.92;;;8.00;99.90;;;;;;5074570;22;20139;-79
2022/03/15 09:30:09;;;;;;;38.88;21.92;;;7.90;99.90;;;;;;5090868;22;20102;-79
2022/03/15 09:32:41;;;;;;;41.30;21.70;;;7.90;99.90;;;;;;5083183;22;20048;-79
2022/03/15 09:35:07;;;;;;;37.78;20.30;;;8.70;99.90;;;;;;5092410;22;20536;-79
2022/03/15 09:37:41;;;;;;;38.78;21.40;;;7.90;99.90;;;;;;5079458;22;20056;-79
2022/03/15 09:40:09;;;;;;;37.95;20.58;;;7.80;99.90;;;;;;5076221;22;20418;-79
2022/03/15 09:42:42;;;;;;;37.67;21.40;;;7.70;99.90;;;;;;5066767;22;20392;-79
2022/03/15 09:45:08;;;;;;;38.83;20.65;;;8.80;99.90;;;;;;5108613;22;20047;-79
2022/03/15 09:47:36;;;;;;;39.00;21.50;;;7.70;99.90;;;;;;5117022;22;20409;-80
2022/03/15 09:50:05;;;;;;;42.05;22.27;;;7.60;99.90;;;;;;5103549;27;20046;-79
2022/03/15 09:52:31;;;;;;;41.38;22.58;;;7.60;99.90;;;;;;5116954;22;20047;-79
2022/03/15 09:54:57;;;;;;;44.25;23.13;;;7.60;99.90;;;;;;5110001;22;20127;-78
2022/03/15 09:57:23;;;;;;;40.85;23.15;;;8.00;99.90;;;;;;5104399;22;20081;-78
2022/03/15 09:59:59;;;;;;;45.80;23.55;;;8.30;99.90;;;;;;5078035;22;20055;-79
2022/03/15 10:02:26;;;;;;;46.13;23.88;;;7.60;99.90;;;;;;5064867;22;20051;-79
2022/03/15 10:04:51;;;;;;;41.85;23.25;;;8.20;99.90;;;;;;5081391;22;20090;-79
2022/03/15 10:07:18;;;;;;;46.53;24.10;;;8.70;99.90;;;;;;5088353;22;20567;-79
2022/03/15 10:09:44;;;;;;;44.60;23.85;;;8.10;99.90;;;;;;5088052;22;20281;-79
2022/03/15 10:12:10;;;;;;;50.08;25.13;;;8.50;99.90;;;;;;5090880;22;20153;-79
2022/03/15 10:14:48;;;;;;;51.95;26.30;;;7.70;99.90;;;;;;5094123;22;20051;-79
2022/03/15 10:17:15;;;;;;;46.83;24.52;;;8.10;99.90;;;;;;5083750;22;20048;-79
2022/03/15 10:19:55;;;;;;;46.72;25.58;;;7.80;99.90;;;;;;5077088;22;20067;-79
2022/03/15 10:22:23;;;;;;;49.53;24.75;;;7.90;99.90;;;;;;5102197;22;20143;-79
2022/03/15 10:24:48;;;;;;;46.20;24.67;;;8.90;99.90;;;;;;5093995;22;20139;-79
2022/03/15 10:27:15;;;;;;;48.88;25.20;;;7.90;99.90;;;;;;5089604;22;20143;-79
2022/03/15 10:29:43;;;;;;;45.88;24.58;;;7.90;99.90;;;;;;5076665;22;20052;-81
2022/03/15 10:32:10;;;;;;;49.28;25.40;;;8.50;99.90;;;;;;5076592;22;20531;-78
2022/03/15 10:34:43;;;;;;;48.28;25.58;;;8.80;99.90;;;;;;5116731;22;20138;-79
2022/03/15 10:37:09;;;;;;;47.45;25.27;;;8.50;99.90;;;;;;5102022;22;20047;-78
2022/03/15 10:39:41;;;;;;;47.35;25.60;;;8.50;99.90;;;;;;5073812;22;20053;-81
2022/03/15 10:42:09;;;;;;;45.22;26.23;;;8.30;99.90;;;;;;5110866;22;20070;-81
2022/03/15 10:44:41;;;;;;;44.78;24.30;;;8.30;99.90;;;;;;5113382;22;20043;-81
2022/03/15 10:47:08;;;;;;;42.90;23.77;;;9.40;99.90;;;;;;5151745;22;20052;-81
2022/03/15 10:52:00;;;;;;;42.00;22.63;;;8.60;99.90;;;;;;5154120;22;20081;-81
2022/03/15 10:54:27;;;;;;;40.55;22.67;;;8.60;99.90;;;;;;5106068;27;20493;-80
2022/03/15 10:56:57;;;;;;;38.45;23.08;;;9.40;99.90;;;;;;5131070;22;20046;-81
2022/03/15 10:59:23;;;;;;;41.45;23.58;;;9.70;99.90;;;;;;5098135;22;20048;-81
2022/03/15 11:01:50;;;;;;;38.67;22.60;;;9.80;99.90;;;;;;5073285;22;20120;-80
2022/03/15 11:04:17;;;;;;;39.90;23.17;;;9.00;99.90;;;;;;5066134;28;20064;-80
2022/03/15 11:06:51;;;;;;;41.83;24.13;;;9.90;99.90;;;;;;5077039;22;20048;-81
2022/03/15 11:09:26;;;;;;;40.38;21.65;;;9.40;99.90;;;;;;5101242;22;20407;-81
2022/03/15 11:12:06;;;;;;;38.60;21.42;;;9.50;99.90;;;;;;5062444;28;20056;-80
2022/03/15 11:14:48;;;;;;;35.85;20.55;;;9.60;99.90;;;;;;5073096;22;20418;-81
2022/03/15 11:17:18;;;;;;;30.58;19.00;;;9.70;99.90;;;;;;5070807;22;20051;-81
2022/03/15 11:19:58;;;;;;;37.53;20.40;;;9.90;99.90;;;;;;5083633;22;20481;-81
2022/03/15 11:22:30;;;;;;;35.35;20.50;;;10.00;99.90;;;;;;5083149;22;20430;-81
2022/03/15 11:25:12;;;;;;;33.33;20.83;;;10.90;99.90;;;;;;5062927;28;20147;-81
2022/03/15 11:30:07;;;;;;;31.40;18.98;;;10.20;99.90;;;;;;5145458;22;20047;-81
2022/03/15 11:32:34;;;;;;;31.15;18.05;;;10.30;99.90;;;;;;5095076;22;20048;-81
2022/03/15 11:35:01;;;;;;;29.63;18.48;;;10.80;99.90;;;;;;5062717;28;20045;-81
2022/03/15 11:37:29;;;;;;;31.15;17.92;;;11.20;99.90;;;;;;5062876;28;20040;-81
2022/03/15 11:39:55;;;;;;;27.42;17.90;;;10.50;99.90;;;;;;5062647;28;20119;-81
2022/03/15 11:42:20;;;;;;;29.63;17.55;;;10.90;99.90;;;;;;5073015;22;20055;-81
2022/03/15 11:44:59;;;;;;;26.10;16.63;;;10.90;99.90;;;;;;5109816;22;20040;-81
2022/03/15 11:47:42;;;;;;;27.55;15.43;;;10.90;99.90;;;;;;5080780;22;20049;-81
2022/03/15 11:50:26;;;;;;;24.80;15.18;;;11.00;99.90;;;;;;5072390;22;20522;-81
2022/03/15 11:53:08;;;;;;;23.00;14.35;;;11.70;99.90;;;;;;5066399;28;20052;-81
2022/03/15 11:55:39;;;;;;;21.65;13.25;;;11.80;99.90;;;;;;5069265;22;20170;-81
2022/03/15 11:58:07;;;;;;;25.17;13.38;;;11.20;99.90;;;;;;5128104;22;20139;-81
2022/03/15 12:00:38;;;;;;;21.80;12.30;;;11.60;99.90;;;;;;5085774;28;20113;-81
2022/03/15 12:03:08;;;;;;;23.30;12.88;;;11.50;99.90;;;;;;5094567;28;20036;-81
2022/03/15 12:08:17;;;;;;;22.90;14.90;;;11.30;99.90;;;;;;5120249;22;20366;-81
2022/03/15 12:10:52;;;;;;;21.98;13.38;;;11.30;99.90;;;;;;5119239;22;20122;-81
2022/03/15 12:13:18;;;;;;;20.52;13.65;;;11.30;99.90;;;;;;5103702;22;20537;-81
2022/03/15 12:15:48;;;;;;;22.77;13.52;;;12.10;99.90;;;;;;5105190;27;20564;-81
2022/03/15 12:18:34;;;;;;;24.88;14.27;;;11.10;99.90;;;;;;5112039;22;20079;-81
2022/03/15 12:21:07;;;;;;;21.48;14.02;;;11.90;99.90;;;;;;5106003;22;20074;-81
2022/03/15 12:23:45;;;;;;;20.30;12.57;;;11.10;99.90;;;;;;5069749;22;20052;-81
2022/03/15 12:26:25;;;;;;;20.48;12.50;;;11.00;99.90;;;;;;5071185;22;20494;-81
2022/03/15 12:29:04;;;;;;;20.83;12.82;;;11.00;99.90;;;;;;5068812;22;20048;-81
2022/03/15 12:31:38;;;;;;;21.75;12.57;;;11.00;99.90;;;;;;5106986;22;20079;-81
2022/03/15 12:34:08;;;;;;;22.95;12.23;;;11.50;99.90;;;;;;5094351;28;20077;-81
2022/03/15 12:39:09;;;;;;;21.50;11.35;;;11.00;99.90;;;;;;5153973;22;20049;-81
2022/03/15 12:41:41;;;;;;;19.35;10.80;;;11.40;99.90;;;;;;5092789;22;20036;-81
2022/03/15 12:44:08;;;;;;;16.52;9.20;;;11.70;99.90;;;;;;5094818;22;20051;-80
2022/03/15 12:46:43;;;;;;;16.80;9.00;;;11.40;99.90;;;;;;5087854;22;20044;-81
2022/03/15 12:49:16;;;;;;;14.45;8.10;;;12.30;99.90;;;;;;5100278;22;20517;-80
2022/03/15 12:51:43;;;;;;;12.88;7.50;;;11.80;99.90;;;;;;5091345;22;20139;-81
2022/03/15 12:54:10;;;;;;;13.48;8.00;;;11.50;99.90;;;;;;5117993;22;20711;-80
2022/03/15 12:59:08;;;;;;;16.20;8.35;;;11.60;99.90;;;;;;5145051;22;20040;-81
2022/03/15 13:01:38;;;;;;;17.10;8.60;;;11.70;99.90;;;;;;5087631;22;20057;-81